createdAt,value
2022-08-29T00:00:16.584Z,24.80
2022-08-29T00:02:48.451Z,24.80
2022-08-29T00:05:16.803Z,24.80
2022-08-29T00:07:46.686Z,24.80
2022-08-29T00:10:14.898Z,24.80
2022-08-29T00:12:42.993Z,24.80
2022-08-29T00:15:12.705Z,24.80
2022-08-29T00:17:40.906Z,24.80
2022-08-29T00:20:11.904Z,24.80
2022-08-29T00:22:39.881Z,24.80
2022-08-29T00:25:10.721Z,24.80
2022-08-29T00:27:38.807Z,24.80
2022-08-29T00:30:10.000Z,24.80
2022-08-29T00:32:38.329Z,24.80
2022-08-29T00:35:10.896Z,24.80
2022-08-29T00:37:39.017Z,24.80
2022-08-29T00:40:13.969Z,24.80
2022-08-29T00:42:43.189Z,24.80
2022-08-29T00:45:13.323Z,24.80
2022-08-29T00:47:46.038Z,24.80
2022-08-29T00:50:22.961Z,24.80
2022-08-29T00:52:51.094Z,24.80
2022-08-29T00:55:24.831Z,24.80
2022-08-29T00:57:57.448Z,24.80
2022-08-29T01:00:26.702Z,24.80
2022-08-29T01:02:55.314Z,24.80
2022-08-29T01:05:26.120Z,24.80
2022-08-29T01:07:54.111Z,24.80
2022-08-29T01:10:41.097Z,24.80
2022-08-29T01:13:11.325Z,24.80
2022-08-29T01:15:41.197Z,24.80
2022-08-29T01:18:11.257Z,24.80
2022-08-29T01:20:47.862Z,24.80
2022-08-29T01:23:20.316Z,24.80
2022-08-29T01:25:51.904Z,24.80
2022-08-29T01:28:24.145Z,24.80
2022-08-29T01:31:03.662Z,24.80
2022-08-29T01:33:39.590Z,24.80
2022-08-29T01:36:08.072Z,24.80
2022-08-29T01:38:36.022Z,24.80
2022-08-29T01:41:06.505Z,24.80
2022-08-29T01:43:41.110Z,24.80
2022-08-29T01:46:10.030Z,24.80
2022-08-29T01:48:39.976Z,24.80
2022-08-29T01:51:08.292Z,24.80
2022-08-29T01:53:36.952Z,24.80
2022-08-29T01:56:12.950Z,24.80
2022-08-29T01:58:40.874Z,24.80
2022-08-29T02:01:09.904Z,24.80
2022-08-29T02:03:38.350Z,24.80
2022-08-29T02:06:09.517Z,24.80
2022-08-29T02:08:37.974Z,24.80
2022-08-29T02:11:10.032Z,24.80
2022-08-29T02:13:40.634Z,24.80
2022-08-29T02:16:09.771Z,24.80
2022-08-29T02:18:37.702Z,24.80
2022-08-29T02:21:05.887Z,24.80
2022-08-29T02:23:35.941Z,24.80
2022-08-29T02:26:04.786Z,24.70
2022-08-29T02:28:33.430Z,24.80
2022-08-29T02:31:03.574Z,24.70
2022-08-29T02:33:31.943Z,24.70
2022-08-29T02:36:01.167Z,24.80
2022-08-29T02:38:29.434Z,24.80
2022-08-29T02:40:57.722Z,24.80
2022-08-29T02:43:26.184Z,24.70
2022-08-29T02:45:55.146Z,24.70
2022-08-29T02:48:24.465Z,24.70
2022-08-29T02:50:54.536Z,24.70
2022-08-29T02:53:25.443Z,24.70
2022-08-29T02:55:53.543Z,24.70
2022-08-29T02:58:23.028Z,24.70
2022-08-29T03:00:51.818Z,24.70
2022-08-29T03:03:20.123Z,24.70
2022-08-29T03:05:49.617Z,24.70
2022-08-29T03:08:18.848Z,24.70
2022-08-29T03:10:46.789Z,24.70
2022-08-29T03:13:14.953Z,24.70
2022-08-29T03:15:42.900Z,24.70
2022-08-29T03:18:11.628Z,24.70
2022-08-29T03:20:40.026Z,24.70
2022-08-29T03:23:10.163Z,24.70
2022-08-29T03:25:38.454Z,24.70
2022-08-29T03:28:06.413Z,24.70
2022-08-29T03:30:34.401Z,24.70
2022-08-29T03:33:02.654Z,24.70
2022-08-29T03:35:30.629Z,24.70
2022-08-29T03:37:59.193Z,24.70
2022-08-29T03:40:28.621Z,24.70
2022-08-29T03:42:57.746Z,24.60
2022-08-29T03:45:26.471Z,24.70
2022-08-29T03:47:54.380Z,24.70
2022-08-29T03:50:24.388Z,24.70
2022-08-29T03:52:52.551Z,24.70
2022-08-29T03:55:20.785Z,24.70
2022-08-29T03:57:50.245Z,24.70
2022-08-29T04:00:20.720Z,24.60
2022-08-29T04:02:49.362Z,24.60
2022-08-29T04:05:18.904Z,24.60
2022-08-29T04:07:49.912Z,24.60
2022-08-29T04:10:20.972Z,24.60
2022-08-29T04:12:54.547Z,24.60
2022-08-29T04:15:23.716Z,24.60
2022-08-29T04:17:54.303Z,24.60
2022-08-29T04:20:25.430Z,24.60
2022-08-29T04:22:55.063Z,24.60
2022-08-29T04:25:24.828Z,24.60
2022-08-29T04:27:54.546Z,24.60
2022-08-29T04:30:26.272Z,24.60
2022-08-29T04:32:54.740Z,24.60
2022-08-29T04:35:22.818Z,24.60
2022-08-29T04:37:50.867Z,24.60
2022-08-29T04:40:21.826Z,24.60
2022-08-29T04:42:50.954Z,24.60
2022-08-29T04:45:22.373Z,24.60
2022-08-29T04:47:50.290Z,24.60
2022-08-29T04:50:21.060Z,24.60
2022-08-29T04:52:49.981Z,24.60
2022-08-29T04:55:22.572Z,24.60
2022-08-29T04:57:56.231Z,24.60
2022-08-29T05:00:28.434Z,24.60
2022-08-29T05:02:56.763Z,24.60
2022-08-29T05:05:27.396Z,24.50
2022-08-29T05:07:55.371Z,24.60
2022-08-29T05:10:23.666Z,24.60
2022-08-29T05:12:51.572Z,24.60
2022-08-29T05:15:19.889Z,24.60
2022-08-29T05:17:49.222Z,24.60
2022-08-29T05:20:17.460Z,24.60
2022-08-29T05:22:45.396Z,24.50
2022-08-29T05:25:17.890Z,24.50
2022-08-29T05:27:46.999Z,24.50
2022-08-29T05:30:16.461Z,24.50
2022-08-29T05:33:03.451Z,24.50
2022-08-29T05:35:31.430Z,24.50
2022-08-29T05:37:59.414Z,24.50
2022-08-29T05:40:27.406Z,24.50
2022-08-29T05:42:55.536Z,24.50
2022-08-29T05:45:23.532Z,24.50
2022-08-29T05:47:51.727Z,24.50
2022-08-29T05:50:24.033Z,24.50
2022-08-29T05:52:51.979Z,24.50
2022-08-29T05:55:20.110Z,24.50
2022-08-29T05:57:50.085Z,24.50
2022-08-29T06:00:18.916Z,24.50
2022-08-29T06:02:46.976Z,24.50
2022-08-29T06:05:20.154Z,24.50
2022-08-29T06:07:48.355Z,24.50
2022-08-29T06:10:16.231Z,24.50
2022-08-29T06:12:44.188Z,24.50
2022-08-29T06:15:12.531Z,24.50
2022-08-29T06:17:40.525Z,24.50
2022-08-29T06:20:09.907Z,24.50
2022-08-29T06:22:40.472Z,24.50
2022-08-29T06:25:35.071Z,24.50
2022-08-29T06:27:58.305Z,24.50
2022-08-29T06:30:26.315Z,24.50
2022-08-29T06:32:54.290Z,24.40
2022-08-29T06:35:22.220Z,24.40
2022-08-29T06:37:51.900Z,24.40
2022-08-29T06:40:20.062Z,24.40
2022-08-29T06:42:48.053Z,24.40
2022-08-29T06:45:16.018Z,24.40
2022-08-29T06:47:43.931Z,24.40
2022-08-29T06:50:11.804Z,24.40
2022-08-29T06:52:39.702Z,24.40
2022-08-29T06:55:12.849Z,24.40
2022-08-29T06:57:42.954Z,24.40
2022-08-29T07:00:21.827Z,24.40
2022-08-29T07:02:52.264Z,24.40
2022-08-29T07:05:21.495Z,24.40
2022-08-29T07:07:49.538Z,24.40
2022-08-29T07:10:22.562Z,24.40
2022-08-29T07:12:51.292Z,24.40
2022-08-29T07:15:20.377Z,24.40
2022-08-29T07:17:48.509Z,24.40
2022-08-29T07:20:17.847Z,24.40
2022-08-29T07:22:51.041Z,24.40
2022-08-29T07:25:21.510Z,24.40
2022-08-29T07:27:52.214Z,24.40
2022-08-29T07:30:21.705Z,24.40
2022-08-29T07:32:49.785Z,24.40
2022-08-29T07:35:29.613Z,24.40
2022-08-29T07:37:59.514Z,24.40
2022-08-29T07:40:28.959Z,24.40
2022-08-29T07:42:56.872Z,24.40
2022-08-29T07:45:24.821Z,24.40
2022-08-29T07:47:52.954Z,24.40
2022-08-29T07:50:22.067Z,24.40
2022-08-29T07:52:50.028Z,24.40
2022-08-29T07:55:18.028Z,24.40
2022-08-29T07:57:48.401Z,24.40
2022-08-29T08:00:16.527Z,24.30
2022-08-29T08:02:44.476Z,24.40
2022-08-29T08:05:12.500Z,24.40
2022-08-29T08:07:41.257Z,24.40
2022-08-29T08:10:10.551Z,24.40
2022-08-29T08:12:38.598Z,24.40
2022-08-29T08:15:09.073Z,24.40
2022-08-29T08:17:38.938Z,24.30
2022-08-29T08:20:11.390Z,24.40
2022-08-29T08:22:39.374Z,24.30
2022-08-29T08:25:08.586Z,24.40
2022-08-29T08:27:41.054Z,24.40
2022-08-29T08:30:13.811Z,24.30
2022-08-29T08:32:46.399Z,24.30
2022-08-29T08:35:16.185Z,24.30
2022-08-29T08:37:45.165Z,24.30
2022-08-29T08:40:21.059Z,24.30
2022-08-29T08:42:50.587Z,24.30
2022-08-29T08:45:26.733Z,24.30
2022-08-29T08:48:00.588Z,24.30
2022-08-29T08:50:35.737Z,24.30
2022-08-29T08:53:08.188Z,24.30
2022-08-29T08:55:42.774Z,24.30
2022-08-29T08:58:28.926Z,24.30
2022-08-29T09:01:02.418Z,24.30
2022-08-29T09:04:13.608Z,24.30
2022-08-29T09:06:53.203Z,24.30
2022-08-29T09:09:30.832Z,24.30
2022-08-29T09:12:07.371Z,24.30
2022-08-29T09:14:53.133Z,24.30
2022-08-29T09:17:30.384Z,24.30
2022-08-29T09:20:08.953Z,24.30
2022-08-29T09:22:40.583Z,24.30
2022-08-29T09:25:10.791Z,24.30
2022-08-29T09:27:39.240Z,24.30
2022-08-29T09:30:11.385Z,24.30
2022-08-29T09:33:02.608Z,24.30
2022-08-29T09:35:34.932Z,24.30
2022-08-29T09:38:05.389Z,24.30
2022-08-29T09:40:53.082Z,24.30
2022-08-29T09:43:25.432Z,24.30
2022-08-29T09:46:25.513Z,24.30
2022-08-29T09:49:13.746Z,24.30
2022-08-29T09:51:43.870Z,24.20
2022-08-29T09:54:16.386Z,24.30
2022-08-29T09:56:52.684Z,24.20
2022-08-29T09:59:26.632Z,24.20
2022-08-29T10:02:16.092Z,24.20
2022-08-29T10:04:47.482Z,24.20
2022-08-29T10:07:19.352Z,24.20
2022-08-29T10:10:07.812Z,24.20
2022-08-29T10:12:46.961Z,24.20
2022-08-29T10:15:39.853Z,24.20
2022-08-29T10:18:21.373Z,24.20
2022-08-29T10:21:10.167Z,24.20
2022-08-29T10:23:47.679Z,24.20
2022-08-29T10:26:27.486Z,24.20
2022-08-29T10:29:03.963Z,24.20
2022-08-29T10:31:38.035Z,24.20
2022-08-29T10:34:17.872Z,24.20
2022-08-29T10:36:55.189Z,24.20
2022-08-29T10:39:36.573Z,24.20
2022-08-29T10:42:09.782Z,24.20
2022-08-29T10:44:50.420Z,24.20
2022-08-29T10:47:31.932Z,24.20
2022-08-29T10:50:27.698Z,24.20
2022-08-29T10:53:08.257Z,24.20
2022-08-29T10:55:49.584Z,24.20
2022-08-29T10:58:27.245Z,24.20
2022-08-29T11:01:04.313Z,24.20
2022-08-29T11:03:40.292Z,24.20
2022-08-29T11:06:14.067Z,24.20
2022-08-29T11:08:47.978Z,24.20
2022-08-29T11:11:19.583Z,24.20
2022-08-29T11:13:51.852Z,24.20
2022-08-29T11:16:26.228Z,24.20
2022-08-29T11:18:59.342Z,24.20
2022-08-29T11:21:33.295Z,24.20
2022-08-29T11:24:03.532Z,24.20
2022-08-29T11:26:46.015Z,24.20
2022-08-29T11:29:24.563Z,24.20
2022-08-29T11:32:04.534Z,24.20
2022-08-29T11:34:45.443Z,24.20
2022-08-29T11:38:01.576Z,24.20
2022-08-29T11:40:48.126Z,24.20
2022-08-29T11:43:20.876Z,24.20
2022-08-29T11:45:59.447Z,24.20
2022-08-29T11:48:36.543Z,24.20
2022-08-29T11:51:35.958Z,24.20
2022-08-29T11:54:41.560Z,24.20
2022-08-29T11:57:45.739Z,24.20
2022-08-29T12:00:51.540Z,24.20
2022-08-29T12:03:55.851Z,24.20
2022-08-29T12:06:29.873Z,24.20
2022-08-29T12:09:08.102Z,24.20
2022-08-29T12:12:20.710Z,24.20
2022-08-29T12:14:53.125Z,24.20
2022-08-29T12:18:02.471Z,24.20
2022-08-29T12:20:40.113Z,24.20
2022-08-29T12:23:18.896Z,24.20
2022-08-29T12:26:03.862Z,24.20
2022-08-29T12:28:42.639Z,24.20
2022-08-29T12:31:31.777Z,24.20
2022-08-29T12:34:24.465Z,24.20
2022-08-29T12:37:21.793Z,24.20
2022-08-29T12:40:25.538Z,24.20
2022-08-29T12:43:13.302Z,24.20
2022-08-29T12:45:45.036Z,24.10
2022-08-29T12:48:18.310Z,24.20
2022-08-29T12:50:48.242Z,24.20
2022-08-29T12:53:23.268Z,24.20
2022-08-29T12:55:53.836Z,24.20
2022-08-29T12:58:41.517Z,24.20
2022-08-29T13:01:22.537Z,24.20
2022-08-29T13:04:05.198Z,24.20
2022-08-29T13:06:34.598Z,24.20
2022-08-29T13:09:04.885Z,24.20
2022-08-29T13:11:33.523Z,24.20
2022-08-29T13:14:06.952Z,24.20
2022-08-29T13:16:35.135Z,24.20
2022-08-29T13:19:12.014Z,24.20
2022-08-29T13:21:40.136Z,24.20
2022-08-29T13:24:13.543Z,24.20
2022-08-29T13:27:04.545Z,24.20
2022-08-29T13:29:38.526Z,24.20
2022-08-29T13:32:17.965Z,24.20
2022-08-29T13:35:04.310Z,24.20
2022-08-29T13:37:34.707Z,24.20
2022-08-29T13:40:31.343Z,24.20
2022-08-29T13:43:01.972Z,24.20
2022-08-29T13:45:30.076Z,24.20
2022-08-29T13:48:02.824Z,24.20
2022-08-29T13:50:32.319Z,24.20
2022-08-29T13:53:00.395Z,24.20
2022-08-29T13:55:29.241Z,24.20
2022-08-29T13:57:57.633Z,24.20
2022-08-29T14:00:35.083Z,24.20
2022-08-29T14:03:07.462Z,24.20
2022-08-29T14:05:38.158Z,24.20
2022-08-29T14:08:06.981Z,24.20
2022-08-29T14:10:35.217Z,24.20
2022-08-29T14:13:03.949Z,24.20
2022-08-29T14:15:32.481Z,24.20
2022-08-29T14:18:00.515Z,24.20
2022-08-29T14:20:28.489Z,24.20
2022-08-29T14:22:57.842Z,24.20
2022-08-29T14:25:25.979Z,24.20
2022-08-29T14:27:54.897Z,24.20
2022-08-29T14:30:25.538Z,24.20
2022-08-29T14:32:53.607Z,24.20
2022-08-29T14:35:26.084Z,24.20
2022-08-29T14:37:57.655Z,24.20
2022-08-29T14:40:26.005Z,24.20
2022-08-29T14:42:57.175Z,24.20
2022-08-29T14:45:25.223Z,24.20
2022-08-29T14:47:53.114Z,24.20
2022-08-29T14:50:21.630Z,24.20
2022-08-29T14:52:50.078Z,24.20
2022-08-29T14:55:19.942Z,24.20
2022-08-29T14:57:48.191Z,24.20
2022-08-29T15:00:19.228Z,24.20
2022-08-29T15:02:47.219Z,24.20
2022-08-29T15:05:15.529Z,24.20
2022-08-29T15:07:44.288Z,24.20
2022-08-29T15:10:14.634Z,24.20
2022-08-29T15:12:44.406Z,24.20
2022-08-29T15:15:12.713Z,24.20
2022-08-29T15:17:43.459Z,24.30
2022-08-29T15:23:01.046Z,24.20
2022-08-29T15:25:29.014Z,24.20
2022-08-29T15:27:58.298Z,24.30
2022-08-29T15:30:27.029Z,24.20
2022-08-29T15:32:54.950Z,24.30
2022-08-29T15:35:22.919Z,24.30
2022-08-29T15:37:50.905Z,24.30
2022-08-29T15:40:19.512Z,24.30
2022-08-29T15:42:47.574Z,24.30
2022-08-29T15:45:17.296Z,24.30
2022-08-29T15:47:46.315Z,24.30
2022-08-29T15:50:15.078Z,24.30
2022-08-29T15:52:43.493Z,24.30
2022-08-29T15:55:12.676Z,24.30
2022-08-29T15:57:50.976Z,24.30
2022-08-29T16:00:30.563Z,24.30
2022-08-29T16:03:00.804Z,24.30
2022-08-29T16:05:29.054Z,24.30
2022-08-29T16:07:57.115Z,24.30
2022-08-29T16:10:25.065Z,24.30
2022-08-29T16:12:52.981Z,24.30
2022-08-29T16:15:22.437Z,24.30
2022-08-29T16:17:50.397Z,24.30
2022-08-29T16:20:18.788Z,24.40
2022-08-29T16:22:46.753Z,24.40
2022-08-29T16:25:15.751Z,24.40
2022-08-29T16:27:43.753Z,24.40
2022-08-29T16:30:12.452Z,24.30
2022-08-29T16:32:41.827Z,24.40
2022-08-29T16:35:10.862Z,24.40
2022-08-29T16:37:38.859Z,24.40
2022-08-29T16:40:08.950Z,24.40
2022-08-29T16:42:38.453Z,24.40
2022-08-29T16:45:08.436Z,24.40
2022-08-29T16:47:36.507Z,24.40
2022-08-29T16:50:07.422Z,24.40
2022-08-29T16:52:35.396Z,24.40
2022-08-29T16:55:04.482Z,24.40
2022-08-29T16:57:32.452Z,24.40
2022-08-29T17:00:00.437Z,24.40
2022-08-29T17:02:29.662Z,24.40
2022-08-29T17:04:57.604Z,24.40
2022-08-29T17:07:34.858Z,24.40
2022-08-29T17:10:02.694Z,24.40
2022-08-29T17:12:29.822Z,24.40
2022-08-29T17:14:56.653Z,24.40
2022-08-29T17:17:24.709Z,24.40
2022-08-29T17:19:52.670Z,24.40
2022-08-29T17:22:20.619Z,24.40
2022-08-29T17:24:50.611Z,24.40
2022-08-29T17:27:21.465Z,24.40
2022-08-29T17:29:49.785Z,24.40
2022-08-29T17:32:17.928Z,24.50
2022-08-29T17:34:46.025Z,24.50
2022-08-29T17:37:13.984Z,24.40
2022-08-29T17:39:41.885Z,24.50
2022-08-29T17:42:11.156Z,24.50
2022-08-29T17:44:39.546Z,24.40
2022-08-29T17:47:07.868Z,24.50
2022-08-29T17:49:35.853Z,24.50
2022-08-29T17:52:04.357Z,24.40
2022-08-29T17:54:32.406Z,24.50
2022-08-29T17:57:01.745Z,24.50
2022-08-29T17:59:33.823Z,24.50
2022-08-29T18:02:02.503Z,24.50
2022-08-29T18:04:30.558Z,24.50
2022-08-29T18:06:59.158Z,24.50
2022-08-29T18:09:27.190Z,24.50
2022-08-29T18:11:55.799Z,24.50
2022-08-29T18:14:25.055Z,24.50
2022-08-29T18:16:55.576Z,24.50
2022-08-29T18:19:24.672Z,24.50
2022-08-29T18:21:53.624Z,24.50
2022-08-29T18:24:22.472Z,24.50
2022-08-29T18:26:51.158Z,24.50
2022-08-29T18:29:20.738Z,24.50
2022-08-29T18:31:49.194Z,24.50
2022-08-29T18:34:18.531Z,24.50
2022-08-29T18:36:47.700Z,24.50
2022-08-29T18:39:19.768Z,24.50
2022-08-29T18:41:47.922Z,24.50
2022-08-29T18:44:15.826Z,24.50
2022-08-29T18:46:48.058Z,24.50
2022-08-29T18:49:19.521Z,24.50
2022-08-29T18:51:47.511Z,24.50
2022-08-29T18:54:19.138Z,24.50
2022-08-29T18:56:47.994Z,24.50
2022-08-29T18:59:16.007Z,24.50
2022-08-29T19:01:44.149Z,24.50
2022-08-29T19:04:12.154Z,24.50
2022-08-29T19:06:41.543Z,24.50
2022-08-29T19:09:09.489Z,24.50
2022-08-29T19:11:37.463Z,24.50
2022-08-29T19:14:05.405Z,24.50
2022-08-29T19:16:33.636Z,24.50
2022-08-29T19:19:01.704Z,24.60
2022-08-29T19:21:28.739Z,24.60
2022-08-29T19:23:58.081Z,24.60
2022-08-29T19:26:29.155Z,24.60
2022-08-29T19:28:59.102Z,24.60
2022-08-29T19:31:29.099Z,24.50
2022-08-29T19:33:57.763Z,24.50
2022-08-29T19:36:26.113Z,24.60
2022-08-29T19:38:54.113Z,24.50
2022-08-29T19:41:25.113Z,24.60
2022-08-29T19:43:53.395Z,24.60
2022-08-29T19:46:24.550Z,24.60
2022-08-29T19:48:53.458Z,24.60
2022-08-29T19:51:24.789Z,24.60
2022-08-29T19:53:56.619Z,24.60
2022-08-29T19:56:28.463Z,24.60
2022-08-29T19:58:56.934Z,24.60
2022-08-29T20:01:25.584Z,24.60
2022-08-29T20:03:54.391Z,24.60
2022-08-29T20:06:23.163Z,24.60
2022-08-29T20:08:51.309Z,24.60
2022-08-29T20:11:23.335Z,24.60
2022-08-29T20:13:56.556Z,24.60
2022-08-29T20:16:27.429Z,24.60
2022-08-29T20:18:55.753Z,24.60
2022-08-29T20:21:24.308Z,24.60
2022-08-29T20:23:57.237Z,24.60
2022-08-29T20:26:27.154Z,24.60
2022-08-29T20:28:58.290Z,24.60
2022-08-29T20:31:26.425Z,24.60
2022-08-29T20:33:54.524Z,24.60
2022-08-29T20:36:41.660Z,24.60
2022-08-29T20:39:12.124Z,24.60
2022-08-29T20:41:40.171Z,24.60
2022-08-29T20:44:10.903Z,24.60
2022-08-29T20:46:40.600Z,24.60
2022-08-29T20:49:08.922Z,24.60
2022-08-29T20:51:37.360Z,24.60
2022-08-29T20:54:05.582Z,24.60
2022-08-29T20:56:33.617Z,24.60
2022-08-29T20:59:01.585Z,24.60
2022-08-29T21:01:30.898Z,24.60
2022-08-29T21:04:21.005Z,24.60
2022-08-29T21:06:49.661Z,24.60
2022-08-29T21:09:17.582Z,24.60
2022-08-29T21:11:45.544Z,24.60
2022-08-29T21:14:13.758Z,24.60
2022-08-29T21:16:43.144Z,24.60
2022-08-29T21:19:11.748Z,24.60
2022-08-29T21:21:41.272Z,24.60
2022-08-29T21:24:10.376Z,24.60
2022-08-29T21:26:39.125Z,24.60
2022-08-29T21:29:08.533Z,24.60
2022-08-29T21:31:37.128Z,24.60
2022-08-29T21:34:08.608Z,24.60
2022-08-29T21:36:37.609Z,24.60
2022-08-29T21:39:07.244Z,24.60
2022-08-29T21:41:38.849Z,24.60
2022-08-29T21:44:07.077Z,24.60
2022-08-29T21:46:37.287Z,24.60
2022-08-29T21:49:08.094Z,24.60
2022-08-29T21:51:36.300Z,24.60
2022-08-29T21:54:04.892Z,24.60
2022-08-29T21:56:34.146Z,24.60
2022-08-29T21:59:02.533Z,24.60
2022-08-29T22:01:32.887Z,24.70
2022-08-29T22:04:03.039Z,24.60
2022-08-29T22:06:35.196Z,24.60
2022-08-29T22:09:03.425Z,24.60
2022-08-29T22:11:37.453Z,24.60
2022-08-29T22:14:06.767Z,24.70
2022-08-29T22:16:34.764Z,24.60
2022-08-29T22:19:05.672Z,24.60
2022-08-29T22:21:38.194Z,24.60
2022-08-29T22:24:06.753Z,24.60
2022-08-29T22:26:35.682Z,24.60
2022-08-29T22:29:03.683Z,24.60
2022-08-29T22:31:32.339Z,24.60
2022-08-29T22:34:00.698Z,24.60
2022-08-29T22:36:28.919Z,24.70
2022-08-29T22:38:58.601Z,24.60
2022-08-29T22:41:26.966Z,24.60
2022-08-29T22:44:31.649Z,24.70
2022-08-29T22:46:45.602Z,24.70
2022-08-29T22:49:14.146Z,24.60
2022-08-29T22:51:42.039Z,24.60
2022-08-29T22:54:28.597Z,24.60
2022-08-29T22:56:56.532Z,24.70
2022-08-29T22:59:24.462Z,24.70
2022-08-29T23:01:52.459Z,24.60
2022-08-29T23:04:21.174Z,24.60
2022-08-29T23:06:49.070Z,24.70
2022-08-29T23:09:18.383Z,24.70
2022-08-29T23:11:46.392Z,24.70
2022-08-29T23:14:14.750Z,24.60
2022-08-29T23:16:43.371Z,24.70
2022-08-29T23:19:14.322Z,24.70
2022-08-29T23:21:44.501Z,24.70
2022-08-29T23:24:12.522Z,24.60
2022-08-29T23:26:42.763Z,24.70
2022-08-29T23:29:10.782Z,24.70
2022-08-29T23:31:38.786Z,24.60
2022-08-29T23:34:06.944Z,24.60
2022-08-29T23:36:35.418Z,24.60
2022-08-29T23:39:06.209Z,24.70
2022-08-29T23:41:34.751Z,24.60
2022-08-29T23:44:04.589Z,24.70
2022-08-29T23:46:32.703Z,24.70
2022-08-29T23:49:00.736Z,24.70
2022-08-29T23:51:28.900Z,24.70
2022-08-29T23:53:57.373Z,24.70
2022-08-29T23:56:25.582Z,24.70
2022-08-29T23:58:55.854Z,24.70
